Portsmouth, RI (02871)

12:25 AM EDT on August 04, 2015 (GMT -0400)
Sea Meadow - South of | | Change Station
CLOSE
Current Station
Personal Weather Station
Location: Portsmouth, RI
Elevation: 204 ft
Nearby Weather Stations

Elev 204 ft 41.58 °N, 71.25 °W | Updated 10 minutes ago

Mostly Cloudy
Mostly Cloudy
73.2 °F
Feels Like 71 °F
N
1.1
Wind Variable Wind from North

Today
High -- | Low -- °F
--% Chance of Precip.
Yesterday
High -- | Low -- °F
Precip. -- in
5:42 AM 7:59 PM
Waning Gibbous, 81% visible
Pressure 29.84 in
Visibility 7.0 miles
Clouds Mostly Cloudy 700 ft
Heat Index 71 °F
Dew Point 70 °F
Humidity 90%
Rainfall 0.00 in
Snow Depth Not available.
UV 0 out of 12
Pollen 7.20 out of 12
Air Quality Not available.
Flu Activity Not available.
METAR KUUU 040353Z AUTO 20007KT 7SM BKN007 23/22 A2984 RMK AO2 CIG 006V012 SLP103 T02280217

More Conditions Fewer Conditions

Pressure 29.84 in
Visibility 7.0 miles
Clouds Mostly Cloudy 700 ft
Heat Index 71 °F
Dew Point 70 °F
Humidity 90%
Rainfall 0.00 in
Snow Depth Not available.
UV 0 out of 12
Pollen 7.20 out of 12
Air Quality Not available.
Flu Activity Not available.
METAR KUUU 040353Z AUTO 20007KT 7SM BKN007 23/22 A2984 RMK AO2 CIG 006V012 SLP103 T02280217

More Conditions Fewer Conditions

10-Day Weather Forecast

×

Almanac

Astronomy

Aug. 04, 2015 Rise Set
Actual Time
Civil Twilight
Nautical Twilight
Astronomical Twilight
Moon
Length of Visible Light
Length of Day
Tomorrow will be .
, % of the Moon is Illuminated

Today's Extremes

State Highs State Lows

Community

WunderPhotos

Upload Photos

1,843,861 photos uploaded!

WunderBlogs® & News

Nearby

Air Quality

  Air Quality AQ Index Pollutant
Not available.

Snow Depth

Station Depth Elevation

Earthquake Activity

City Distance Mag. Time & Date
Minimum magnitude displayed is 2.5.

Coastal Water Temperatures

Place Temperature

Stations

Nearby Weather Stations

Station Location Temp. Windchill Dew Point Humidity Wind Precip. Elev Updated Type